createdAt,value
2024-01-08T00:00:39.714Z,1.00
2024-01-08T00:01:42.995Z,0.75
2024-01-08T00:02:46.230Z,1.50
2024-01-08T00:03:50.384Z,1.00
2024-01-08T00:04:53.993Z,2.00
2024-01-08T00:05:57.402Z,2.00
2024-01-08T00:07:00.711Z,2.00
2024-01-08T00:08:04.051Z,1.00
2024-01-08T00:09:07.260Z,1.75
2024-01-08T00:10:10.359Z,1.60
2024-01-08T00:11:13.603Z,1.00
2024-01-08T00:12:16.936Z,1.00
2024-01-08T00:13:20.004Z,1.50
2024-01-08T00:14:23.424Z,1.75
2024-01-08T00:15:26.783Z,1.50
2024-01-08T00:16:29.954Z,1.50
2024-01-08T00:17:33.226Z,1.25
2024-01-08T00:18:36.671Z,2.00
2024-01-08T00:19:40.027Z,2.00
2024-01-08T00:20:44.416Z,2.50
2024-01-08T00:21:47.859Z,2.00
2024-01-08T00:22:51.382Z,1.50
2024-01-08T00:23:54.697Z,2.00
2024-01-08T00:24:58.066Z,1.50
2024-01-08T00:26:02.004Z,2.00
2024-01-08T00:27:05.572Z,1.50
2024-01-08T00:28:09.137Z,2.50
2024-01-08T00:29:12.731Z,2.50
2024-01-08T00:30:15.981Z,2.50
2024-01-08T00:31:19.309Z,2.00
2024-01-08T00:32:22.834Z,2.00
2024-01-08T00:33:26.365Z,1.50
2024-01-08T00:34:30.178Z,1.50
2024-01-08T00:35:33.549Z,1.50
2024-01-08T00:36:36.854Z,1.60
2024-01-08T00:37:41.233Z,1.50
2024-01-08T00:38:45.638Z,1.50
2024-01-08T00:39:49.174Z,1.00
2024-01-08T00:40:52.481Z,1.00
2024-01-08T00:41:56.173Z,2.00
2024-01-08T00:42:59.818Z,2.00
2024-01-08T00:44:03.648Z,2.50
2024-01-08T00:45:07.174Z,3.00
2024-01-08T00:46:10.507Z,1.50
2024-01-08T00:47:14.268Z,1.50
2024-01-08T00:48:18.124Z,2.50
2024-01-08T00:49:22.083Z,2.50
2024-01-08T00:50:25.718Z,2.50
2024-01-08T00:51:29.184Z,2.50
2024-01-08T00:52:32.469Z,2.50
2024-01-08T00:53:37.748Z,2.00
2024-01-08T00:54:41.789Z,1.50
2024-01-08T00:55:45.094Z,2.00
2024-01-08T00:56:48.572Z,2.75
2024-01-08T00:57:51.876Z,3.50
2024-01-08T00:58:55.222Z,2.00
2024-01-08T00:59:58.840Z,1.75
2024-01-08T01:01:03.546Z,1.50
2024-01-08T01:02:06.840Z,1.50
2024-01-08T01:03:10.146Z,1.75
2024-01-08T01:04:13.674Z,2.50
2024-01-08T01:05:17.516Z,2.25
2024-01-08T01:06:21.395Z,1.75
2024-01-08T01:07:24.904Z,2.00
2024-01-08T01:08:28.735Z,2.00
2024-01-08T01:09:32.064Z,2.00
2024-01-08T01:10:35.485Z,2.00
2024-01-08T01:11:39.052Z,2.50
2024-01-08T01:12:42.347Z,1.75
2024-01-08T01:13:45.565Z,2.25
2024-01-08T01:14:49.130Z,2.50
2024-01-08T01:15:52.600Z,2.00
2024-01-08T01:16:55.982Z,2.00
2024-01-08T01:17:59.697Z,2.50
2024-01-08T01:19:03.207Z,1.50
2024-01-08T01:20:07.196Z,1.75
2024-01-08T01:21:10.555Z,2.00
2024-01-08T01:22:13.846Z,2.50
2024-01-08T01:23:17.262Z,3.00
2024-01-08T01:24:24.096Z,2.50
2024-01-08T01:25:27.827Z,1.25
2024-01-08T01:26:31.237Z,1.00
2024-01-08T01:27:34.783Z,1.50
2024-01-08T01:28:38.155Z,2.00
2024-01-08T01:29:42.889Z,2.00
2024-01-08T01:30:46.498Z,1.75
2024-01-08T01:31:49.979Z,2.00
2024-01-08T01:32:53.661Z,2.00
2024-01-08T01:33:57.078Z,2.00
2024-01-08T01:35:00.691Z,2.00
2024-01-08T01:36:04.632Z,1.50
2024-01-08T01:37:07.912Z,1.75
2024-01-08T01:38:11.460Z,2.50
2024-01-08T01:39:14.918Z,2.25
2024-01-08T01:40:18.492Z,2.00
2024-01-08T01:41:22.557Z,1.50
2024-01-08T01:42:26.088Z,1.75
2024-01-08T01:43:30.133Z,0.25
2024-01-08T01:44:33.642Z,1.00
2024-01-08T01:45:36.737Z,1.00
2024-01-08T01:46:39.819Z,1.50
2024-01-08T01:47:43.226Z,1.50
2024-01-08T01:48:47.283Z,1.50
2024-01-08T01:49:50.741Z,2.00
2024-01-08T01:50:53.993Z,1.25
2024-01-08T01:51:57.169Z,1.25
2024-01-08T01:53:00.305Z,2.00
2024-01-08T01:54:04.347Z,2.00
2024-01-08T01:55:07.643Z,1.50
2024-01-08T01:56:10.972Z,1.50
2024-01-08T01:57:14.272Z,1.50
2024-01-08T01:58:17.608Z,2.00
2024-01-08T01:59:21.585Z,2.25
2024-01-08T02:00:25.585Z,2.00
2024-01-08T02:01:29.209Z,2.00
2024-01-08T02:02:32.559Z,1.00
2024-01-08T02:03:35.728Z,1.00
2024-01-08T02:04:39.597Z,1.00
2024-01-08T02:05:42.998Z,1.50
2024-01-08T02:06:46.770Z,1.00
2024-01-08T02:07:50.071Z,2.00
2024-01-08T02:08:53.309Z,2.00
2024-01-08T02:09:58.172Z,2.40
2024-01-08T02:11:01.756Z,1.50
2024-01-08T02:12:05.210Z,1.50
2024-01-08T02:13:08.291Z,1.00
2024-01-08T02:14:11.510Z,2.00
2024-01-08T02:15:16.188Z,2.00
2024-01-08T02:16:19.904Z,2.00
2024-01-08T02:17:23.638Z,2.00
2024-01-08T02:18:27.261Z,1.50
2024-01-08T02:19:31.169Z,1.25
2024-01-08T02:20:34.620Z,2.00
2024-01-08T02:21:37.932Z,2.50
2024-01-08T02:22:41.028Z,1.50
2024-01-08T02:23:44.714Z,2.00
2024-01-08T02:24:48.404Z,1.00
2024-01-08T02:25:52.104Z,1.00
2024-01-08T02:26:55.489Z,2.00
2024-01-08T02:27:58.895Z,2.00
2024-01-08T02:29:02.098Z,2.00
2024-01-08T02:30:05.735Z,2.00
2024-01-08T02:31:09.170Z,1.75
2024-01-08T02:32:12.545Z,2.00
2024-01-08T02:33:15.841Z,1.50
2024-01-08T02:34:19.029Z,1.50
2024-01-08T02:35:22.480Z,2.50
2024-01-08T02:36:25.886Z,2.50
2024-01-08T02:37:29.262Z,2.00
2024-01-08T02:38:32.669Z,2.00
2024-01-08T02:39:35.945Z,2.00
2024-01-08T02:40:39.933Z,2.50
2024-01-08T02:41:43.416Z,1.50
2024-01-08T02:42:46.687Z,1.25
2024-01-08T02:43:49.929Z,2.00
2024-01-08T02:44:53.269Z,2.00
2024-01-08T02:45:56.651Z,2.00
2024-01-08T02:46:59.907Z,2.00
2024-01-08T02:48:03.254Z,1.75
2024-01-08T02:49:06.631Z,2.00
2024-01-08T02:50:10.165Z,2.00
2024-01-08T02:51:13.377Z,2.00
2024-01-08T02:52:17.867Z,2.50
2024-01-08T02:53:21.399Z,2.00
2024-01-08T02:54:24.866Z,1.50
2024-01-08T02:55:28.025Z,1.75
2024-01-08T02:56:31.539Z,1.50
2024-01-08T02:57:35.718Z,2.00
2024-01-08T02:58:39.254Z,2.00
2024-01-08T02:59:42.625Z,2.00
2024-01-08T03:00:46.152Z,3.00
2024-01-08T03:01:49.806Z,2.00
2024-01-08T03:02:53.395Z,2.00
2024-01-08T03:03:57.323Z,2.50
2024-01-08T03:05:04.437Z,2.75
2024-01-08T03:06:08.125Z,1.50
2024-01-08T03:07:11.669Z,1.75
2024-01-08T03:08:17.780Z,2.00
2024-01-08T03:09:21.203Z,2.25
2024-01-08T03:10:24.903Z,2.00
2024-01-08T03:11:28.636Z,2.00
2024-01-08T03:12:32.188Z,2.00
2024-01-08T03:13:35.495Z,1.50
2024-01-08T03:14:39.426Z,2.00
2024-01-08T03:15:42.857Z,2.00
2024-01-08T03:16:48.956Z,2.00
2024-01-08T03:18:04.396Z,2.50
2024-01-08T03:19:07.882Z,2.00
2024-01-08T03:20:11.226Z,2.50
2024-01-08T03:21:17.399Z,2.25
2024-01-08T03:22:21.807Z,2.00
2024-01-08T03:23:25.103Z,2.00
2024-01-08T03:24:28.538Z,2.00
2024-01-08T03:25:31.767Z,2.00
2024-01-08T03:26:35.039Z,2.00
2024-01-08T03:27:39.228Z,2.00
2024-01-08T03:28:42.737Z,2.50
2024-01-08T03:29:46.027Z,2.00
2024-01-08T03:30:49.359Z,3.00
2024-01-08T03:31:52.753Z,2.50
2024-01-08T03:32:55.980Z,1.75
2024-01-08T03:33:59.146Z,1.75
2024-01-08T03:35:02.875Z,1.75
2024-01-08T03:36:05.902Z,2.20
2024-01-08T03:37:09.098Z,2.50
2024-01-08T03:38:13.219Z,2.00
2024-01-08T03:39:16.505Z,1.50
2024-01-08T03:40:19.856Z,2.00
2024-01-08T03:41:23.304Z,2.50
2024-01-08T03:42:26.865Z,2.50
2024-01-08T03:43:30.203Z,3.00
2024-01-08T03:44:33.565Z,2.50
2024-01-08T03:45:36.926Z,1.50
2024-01-08T03:46:40.208Z,1.25
2024-01-08T03:47:43.701Z,1.75
2024-01-08T03:48:47.475Z,2.00
2024-01-08T03:49:51.107Z,2.00
2024-01-08T03:50:54.491Z,2.00
2024-01-08T03:51:58.033Z,2.50
2024-01-08T03:53:01.279Z,2.50
2024-01-08T03:54:04.655Z,2.00
2024-01-08T03:55:08.436Z,2.50
2024-01-08T03:56:11.967Z,2.00
2024-01-08T03:57:15.633Z,1.50
2024-01-08T03:58:18.799Z,2.00
2024-01-08T03:59:22.175Z,2.00
2024-01-08T04:00:25.690Z,1.75
2024-01-08T04:01:29.260Z,2.00
2024-01-08T04:02:32.922Z,2.00
2024-01-08T04:03:36.462Z,2.00
2024-01-08T04:04:40.133Z,2.00
2024-01-08T04:05:43.579Z,2.00
2024-01-08T04:06:46.857Z,1.50
2024-01-08T04:07:50.119Z,1.50
2024-01-08T04:08:53.590Z,1.25
2024-01-08T04:09:57.168Z,0.75
2024-01-08T04:11:00.306Z,1.00
2024-01-08T04:12:03.738Z,0.50
2024-01-08T04:13:06.823Z,1.50
2024-01-08T04:14:10.256Z,2.00
2024-01-08T04:15:13.495Z,2.00
2024-01-08T04:16:16.879Z,1.75
2024-01-08T04:17:20.143Z,1.50
2024-01-08T04:18:23.598Z,1.25
2024-01-08T04:19:27.033Z,1.00
2024-01-08T04:20:30.491Z,2.00
2024-01-08T04:21:33.648Z,1.40
2024-01-08T04:22:36.916Z,1.50
2024-01-08T04:23:40.409Z,1.50
2024-01-08T04:24:43.660Z,0.75
2024-01-08T04:25:47.175Z,0.50
2024-01-08T04:26:50.460Z,1.00
2024-01-08T04:27:54.154Z,1.50
2024-01-08T04:28:57.687Z,1.00
2024-01-08T04:30:01.377Z,0.50
2024-01-08T04:31:05.029Z,1.25
2024-01-08T04:32:08.408Z,2.00
2024-01-08T04:33:12.485Z,2.00
2024-01-08T04:34:16.350Z,1.00
2024-01-08T04:35:19.771Z,0.75
2024-01-08T04:36:23.770Z,1.60
2024-01-08T04:37:27.484Z,1.00
2024-01-08T04:38:31.245Z,0.75
2024-01-08T04:39:34.657Z,1.00
2024-01-08T04:40:38.046Z,1.00
2024-01-08T04:41:42.016Z,1.00
2024-01-08T04:42:47.795Z,1.25
2024-01-08T04:43:50.935Z,0.50
2024-01-08T04:44:55.091Z,0.25
2024-01-08T04:45:58.776Z,1.00
2024-01-08T04:47:02.215Z,1.00
2024-01-08T04:48:06.053Z,1.50
2024-01-08T04:49:09.941Z,1.50
2024-01-08T04:50:13.233Z,1.50
2024-01-08T04:51:17.052Z,1.50
2024-01-08T04:52:21.158Z,1.00
2024-01-08T04:53:24.962Z,1.00
2024-01-08T04:54:28.333Z,1.00
2024-01-08T04:55:32.126Z,1.50
2024-01-08T04:56:35.617Z,1.25
2024-01-08T04:57:39.292Z,1.00
2024-01-08T04:58:42.878Z,1.50
2024-01-08T04:59:46.338Z,1.75
2024-01-08T05:00:49.758Z,1.00
2024-01-08T05:01:53.071Z,1.00
2024-01-08T05:02:56.785Z,1.50
2024-01-08T05:04:00.039Z,1.25
2024-01-08T05:05:03.593Z,2.00
2024-01-08T05:06:06.881Z,1.25
2024-01-08T05:07:10.074Z,1.50
2024-01-08T05:08:13.424Z,1.50
2024-01-08T05:09:16.744Z,2.00
2024-01-08T05:10:20.128Z,1.50
2024-01-08T05:11:23.545Z,2.00
2024-01-08T05:12:27.114Z,2.00
2024-01-08T05:13:30.504Z,2.00
2024-01-08T05:14:33.889Z,2.00
2024-01-08T05:15:37.488Z,1.75
2024-01-08T05:16:40.572Z,0.50
2024-01-08T05:17:43.964Z,1.00
2024-01-08T05:18:47.587Z,1.25
2024-01-08T05:19:50.885Z,1.50
2024-01-08T05:20:54.426Z,2.00
2024-01-08T05:21:57.600Z,2.00
2024-01-08T05:23:00.684Z,1.25
2024-01-08T05:24:03.861Z,1.00
2024-01-08T05:25:07.261Z,1.25
2024-01-08T05:26:10.564Z,0.75
2024-01-08T05:27:13.824Z,1.00
2024-01-08T05:28:16.999Z,2.00
2024-01-08T05:29:20.484Z,1.00
2024-01-08T05:30:24.403Z,0.75
2024-01-08T05:31:27.669Z,1.50
2024-01-08T05:32:31.096Z,2.00
2024-01-08T05:33:34.927Z,1.50
2024-01-08T05:34:38.418Z,1.25
2024-01-08T05:35:41.791Z,0.50
2024-01-08T05:36:45.547Z,1.00
2024-01-08T05:37:48.828Z,2.00
2024-01-08T05:38:52.338Z,2.00
2024-01-08T05:39:55.992Z,1.25
2024-01-08T05:40:59.819Z,1.50
2024-01-08T05:42:03.011Z,0.50
2024-01-08T05:43:06.149Z,1.00
2024-01-08T05:44:09.523Z,1.50
2024-01-08T05:45:12.733Z,1.00
2024-01-08T05:46:16.181Z,1.00
2024-01-08T05:47:19.470Z,1.50
2024-01-08T05:48:22.874Z,1.00
2024-01-08T05:49:26.626Z,1.25
2024-01-08T05:50:30.461Z,0.50
2024-01-08T05:51:33.875Z,1.50
2024-01-08T05:52:38.785Z,1.50
2024-01-08T05:53:42.491Z,2.00
2024-01-08T05:54:46.706Z,1.00
2024-01-08T05:55:50.281Z,1.00
2024-01-08T05:56:53.800Z,2.00
2024-01-08T05:57:57.152Z,1.75
2024-01-08T05:59:01.244Z,1.50
2024-01-08T06:00:04.785Z,2.00
2024-01-08T06:01:08.340Z,2.00
2024-01-08T06:02:11.603Z,2.00
2024-01-08T06:03:15.027Z,1.00
2024-01-08T06:04:18.507Z,1.00
2024-01-08T06:05:21.836Z,1.00
2024-01-08T06:06:25.462Z,1.50
2024-01-08T06:07:28.761Z,1.25
2024-01-08T06:08:32.275Z,0.40
2024-01-08T06:09:35.761Z,1.00
2024-01-08T06:10:41.889Z,1.50
2024-01-08T06:11:45.496Z,2.00
2024-01-08T06:12:49.281Z,2.00
2024-01-08T06:13:52.768Z,2.00
2024-01-08T06:14:56.491Z,1.50
2024-01-08T06:16:00.059Z,1.25
2024-01-08T06:17:03.672Z,1.50
2024-01-08T06:18:07.319Z,1.00
2024-01-08T06:19:10.424Z,1.25
2024-01-08T06:20:14.140Z,1.25
2024-01-08T06:21:17.915Z,1.50
2024-01-08T06:22:21.091Z,2.00
2024-01-08T06:23:24.710Z,1.00
2024-01-08T06:24:28.459Z,1.50
2024-01-08T06:25:31.757Z,1.00
2024-01-08T06:26:35.414Z,1.50
2024-01-08T06:27:38.742Z,2.00
2024-01-08T06:28:42.116Z,1.75
2024-01-08T06:29:45.608Z,1.00
2024-01-08T06:30:48.815Z,1.50
2024-01-08T06:31:52.436Z,1.25
2024-01-08T06:32:55.946Z,1.00
2024-01-08T06:33:59.335Z,1.50
2024-01-08T06:35:02.592Z,2.00
2024-01-08T06:36:05.758Z,1.25
2024-01-08T06:37:08.813Z,1.00
2024-01-08T06:38:12.153Z,1.00
2024-01-08T06:39:15.373Z,1.75
2024-01-08T06:40:21.250Z,2.00
2024-01-08T06:41:22.964Z,1.50
2024-01-08T06:42:26.302Z,1.00
2024-01-08T06:43:30.362Z,0.75
2024-01-08T06:44:33.638Z,1.00
2024-01-08T06:45:36.952Z,1.50
2024-01-08T06:46:40.108Z,2.00
2024-01-08T06:47:43.810Z,1.60
2024-01-08T06:48:47.171Z,1.25
2024-01-08T06:49:50.467Z,2.00
2024-01-08T06:50:53.650Z,2.00
2024-01-08T06:51:56.943Z,2.00
2024-01-08T06:53:00.178Z,1.75
2024-01-08T06:54:03.500Z,0.50
2024-01-08T06:55:06.893Z,0.50
2024-01-08T06:56:10.488Z,1.50
2024-01-08T06:57:13.662Z,1.00
2024-01-08T06:58:16.846Z,1.00
2024-01-08T06:59:20.174Z,1.00
2024-01-08T07:00:23.819Z,1.60
2024-01-08T07:01:27.084Z,1.50
2024-01-08T07:02:30.468Z,1.50
2024-01-08T07:03:33.646Z,1.00
2024-01-08T07:04:37.085Z,1.00
2024-01-08T07:05:40.372Z,1.50
2024-01-08T07:06:43.674Z,1.00
2024-01-08T07:07:46.721Z,1.00
2024-01-08T07:08:49.994Z,1.50
2024-01-08T07:09:53.098Z,1.50
2024-01-08T07:10:56.297Z,1.60
2024-01-08T07:11:59.650Z,2.00
2024-01-08T07:13:02.716Z,1.50
2024-01-08T07:14:06.035Z,0.75
2024-01-08T07:15:09.229Z,1.25
2024-01-08T07:16:12.380Z,1.50
2024-01-08T07:17:17.162Z,1.25
2024-01-08T07:18:20.682Z,1.50
2024-01-08T07:19:24.117Z,1.25
2024-01-08T07:20:27.489Z,1.00
2024-01-08T07:21:30.648Z,1.25
2024-01-08T07:22:35.123Z,1.60
2024-01-08T07:23:38.281Z,1.50
2024-01-08T07:24:42.337Z,1.50
2024-01-08T07:25:45.521Z,2.00
2024-01-08T07:26:48.838Z,1.50
2024-01-08T07:27:52.107Z,1.25
2024-01-08T07:28:55.636Z,0.50
2024-01-08T07:29:59.202Z,0.75
2024-01-08T07:31:02.723Z,1.50
2024-01-08T07:32:05.968Z,1.00
2024-01-08T07:33:09.805Z,1.00
2024-01-08T07:34:13.381Z,1.00
2024-01-08T07:35:16.641Z,1.00
2024-01-08T07:36:19.993Z,1.25
2024-01-08T07:37:23.054Z,0.50
2024-01-08T07:38:26.718Z,1.00
2024-01-08T07:39:30.263Z,0.50
2024-01-08T07:40:33.563Z,0.50
2024-01-08T07:41:37.067Z,1.00
2024-01-08T07:42:40.214Z,0.50
2024-01-08T07:43:43.508Z,1.00
2024-01-08T07:44:48.575Z,1.00
2024-01-08T07:45:52.026Z,0.50
2024-01-08T07:46:55.556Z,1.00
2024-01-08T07:47:58.965Z,1.00
2024-01-08T07:49:02.995Z,1.00
2024-01-08T07:50:06.410Z,0.25
2024-01-08T07:51:09.516Z,1.00
2024-01-08T07:52:12.763Z,0.50
2024-01-08T07:53:16.075Z,0.00
2024-01-08T07:54:19.417Z,0.50
2024-01-08T07:55:22.905Z,1.00
2024-01-08T07:56:26.567Z,0.50
2024-01-08T07:57:31.012Z,1.00
2024-01-08T07:58:39.409Z,0.25
2024-01-08T07:59:38.920Z,0.00
2024-01-08T08:00:42.299Z,0.75
2024-01-08T08:01:45.600Z,1.00
2024-01-08T08:02:49.269Z,1.00
2024-01-08T08:03:52.521Z,1.00
2024-01-08T08:04:55.878Z,0.75
2024-01-08T08:05:59.636Z,0.50
2024-01-08T08:07:03.048Z,1.00
2024-01-08T08:08:06.351Z,1.00
2024-01-08T08:09:09.491Z,1.25
2024-01-08T08:10:13.974Z,0.75
2024-01-08T08:11:17.145Z,0.00
2024-01-08T08:12:20.240Z,0.50
2024-01-08T08:13:23.667Z,0.50
2024-01-08T08:14:26.941Z,0.50
2024-01-08T08:15:30.321Z,1.00
2024-01-08T08:16:33.479Z,0.25
2024-01-08T08:17:36.826Z,0.50
2024-01-08T08:18:40.119Z,1.00
2024-01-08T08:19:43.388Z,1.00
2024-01-08T08:20:46.806Z,0.50
2024-01-08T08:21:52.878Z,0.50
2024-01-08T08:22:54.471Z,0.25
2024-01-08T08:23:57.924Z,0.25
2024-01-08T08:25:01.205Z,0.00
2024-01-08T08:26:04.717Z,1.00
2024-01-08T08:27:07.945Z,0.25
2024-01-08T08:28:12.506Z,0.50
2024-01-08T08:29:15.980Z,0.50
2024-01-08T08:30:19.397Z,0.50
2024-01-08T08:31:23.168Z,0.40
2024-01-08T08:32:26.977Z,0.00
2024-01-08T08:33:30.585Z,0.50
2024-01-08T08:34:34.155Z,0.75
2024-01-08T08:35:37.758Z,0.50
2024-01-08T08:36:41.232Z,0.75
2024-01-08T08:37:52.761Z,0.50
2024-01-08T08:38:49.251Z,0.00
2024-01-08T08:39:52.972Z,0.50
2024-01-08T08:40:56.396Z,0.25
2024-01-08T08:41:59.740Z,0.75
2024-01-08T08:43:02.991Z,0.25
2024-01-08T08:44:06.531Z,0.00
2024-01-08T08:45:09.958Z,0.00
2024-01-08T08:46:13.134Z,0.50
2024-01-08T08:47:17.058Z,1.00
2024-01-08T08:48:20.492Z,0.25
2024-01-08T08:49:24.872Z,0.50
2024-01-08T08:50:28.353Z,1.00
2024-01-08T08:51:31.805Z,0.50
2024-01-08T08:52:35.413Z,1.00
2024-01-08T08:53:39.006Z,1.00
2024-01-08T08:54:42.298Z,0.25
2024-01-08T08:55:45.353Z,0.50
2024-01-08T08:56:48.720Z,1.00
2024-01-08T08:57:52.772Z,1.00
2024-01-08T08:58:56.468Z,0.75
2024-01-08T08:59:59.974Z,0.50
2024-01-08T09:01:03.803Z,0.75
2024-01-08T09:02:07.162Z,0.25
2024-01-08T09:03:10.714Z,0.25
2024-01-08T09:04:14.264Z,1.00
2024-01-08T09:05:26.016Z,0.50
2024-01-08T09:06:22.657Z,0.75
2024-01-08T09:07:26.146Z,0.50
2024-01-08T09:08:29.737Z,1.00
2024-01-08T09:09:33.190Z,0.50
2024-01-08T09:10:36.481Z,0.50
2024-01-08T09:11:39.915Z,1.00
2024-01-08T09:12:45.425Z,0.00
2024-01-08T09:13:47.982Z,0.50
2024-01-08T09:14:51.855Z,0.75
2024-01-08T09:15:55.132Z,0.25
2024-01-08T09:16:58.658Z,0.50
2024-01-08T09:18:02.056Z,1.00
2024-01-08T09:19:05.703Z,1.00
2024-01-08T09:20:08.881Z,1.00
2024-01-08T09:21:12.369Z,0.50
2024-01-08T09:22:15.990Z,0.00
2024-01-08T09:23:19.484Z,0.50
2024-01-08T09:24:23.002Z,1.00
2024-01-08T09:25:26.385Z,1.00
2024-01-08T09:26:29.978Z,1.00
2024-01-08T09:27:33.558Z,1.00
2024-01-08T09:28:37.006Z,1.00
2024-01-08T09:29:40.576Z,1.00
2024-01-08T09:30:44.136Z,0.25
2024-01-08T09:31:47.614Z,1.50
2024-01-08T09:32:51.290Z,1.00
2024-01-08T09:33:55.033Z,0.75
2024-01-08T09:34:58.508Z,0.75
2024-01-08T09:36:02.192Z,1.00
2024-01-08T09:37:05.320Z,0.00
2024-01-08T09:38:08.607Z,0.50
2024-01-08T09:39:12.208Z,1.00
2024-01-08T09:40:15.788Z,1.00
2024-01-08T09:41:23.707Z,1.00
2024-01-08T09:42:23.612Z,1.00
2024-01-08T09:43:27.612Z,0.50
2024-01-08T09:44:31.215Z,0.50
2024-01-08T09:45:35.189Z,1.00
2024-01-08T09:46:38.378Z,1.00
2024-01-08T09:47:42.021Z,1.00
2024-01-08T09:48:45.822Z,0.50
2024-01-08T09:49:49.372Z,1.00
2024-01-08T09:50:53.194Z,1.00
2024-01-08T09:51:56.641Z,0.75
2024-01-08T09:53:00.126Z,0.50
2024-01-08T09:54:03.615Z,1.00
2024-01-08T09:55:07.101Z,1.00
2024-01-08T09:56:10.815Z,1.00
2024-01-08T09:57:14.283Z,1.00
2024-01-08T09:58:17.756Z,1.00
2024-01-08T09:59:21.198Z,1.00
2024-01-08T10:00:24.352Z,1.50
2024-01-08T10:01:27.832Z,1.00
2024-01-08T10:02:31.280Z,0.25
2024-01-08T10:03:34.690Z,0.75
2024-01-08T10:04:37.997Z,1.00
2024-01-08T10:05:41.408Z,1.00
2024-01-08T10:06:44.699Z,1.00
2024-01-08T10:07:48.050Z,0.00
2024-01-08T10:08:51.337Z,0.50
2024-01-08T10:09:54.626Z,1.00
2024-01-08T10:10:58.053Z,1.00
2024-01-08T10:12:01.709Z,1.00
2024-01-08T10:13:05.349Z,1.00
2024-01-08T10:14:08.832Z,0.50
2024-01-08T10:15:12.470Z,0.75
2024-01-08T10:16:16.052Z,0.50
2024-01-08T10:17:19.728Z,0.50
2024-01-08T10:18:23.487Z,0.50
2024-01-08T10:19:27.304Z,1.00
2024-01-08T10:20:31.152Z,1.00
2024-01-08T10:21:34.840Z,1.00
2024-01-08T10:22:38.346Z,1.00
2024-01-08T10:23:41.835Z,1.00
2024-01-08T10:24:45.262Z,0.25
2024-01-08T10:25:48.730Z,0.00
2024-01-08T10:26:52.040Z,0.50
2024-01-08T10:27:55.879Z,1.00
2024-01-08T10:28:59.357Z,0.25
2024-01-08T10:30:02.892Z,0.00
2024-01-08T10:31:06.579Z,0.00
2024-01-08T10:32:10.109Z,0.00
2024-01-08T10:33:14.217Z,0.00
2024-01-08T10:34:17.718Z,0.25
2024-01-08T10:35:21.082Z,0.50
2024-01-08T10:36:24.503Z,0.50
2024-01-08T10:37:27.886Z,0.50
2024-01-08T10:38:31.691Z,0.00
2024-01-08T10:39:44.226Z,0.00
2024-01-08T10:40:39.497Z,0.75
2024-01-08T10:41:42.722Z,0.00
2024-01-08T10:42:46.025Z,0.00
2024-01-08T10:43:49.334Z,0.50
2024-01-08T10:44:52.736Z,0.50
2024-01-08T10:45:56.006Z,0.25
2024-01-08T10:46:59.639Z,0.25
2024-01-08T10:48:03.242Z,0.50
2024-01-08T10:49:06.775Z,0.50
2024-01-08T10:50:09.979Z,0.75
2024-01-08T10:51:13.369Z,0.50
2024-01-08T10:52:16.746Z,0.50
2024-01-08T10:53:20.397Z,0.50
2024-01-08T10:54:24.134Z,1.00
2024-01-08T10:55:27.427Z,1.00
2024-01-08T10:56:30.913Z,1.00
2024-01-08T10:57:34.295Z,0.50
2024-01-08T10:58:37.568Z,0.00
2024-01-08T10:59:40.923Z,0.00
2024-01-08T11:00:45.164Z,0.00
2024-01-08T11:01:48.348Z,0.00
2024-01-08T11:02:51.938Z,1.00
2024-01-08T11:03:55.299Z,0.50
2024-01-08T11:04:58.752Z,0.50
2024-01-08T11:06:02.329Z,0.00
2024-01-08T11:07:05.698Z,0.50
2024-01-08T11:08:09.210Z,0.50
2024-01-08T11:09:12.465Z,0.00
2024-01-08T11:10:15.848Z,0.00
2024-01-08T11:11:19.205Z,0.00
2024-01-08T11:12:22.571Z,0.50
2024-01-08T11:13:25.919Z,0.75
2024-01-08T11:14:29.506Z,0.60
2024-01-08T11:15:33.201Z,0.50
2024-01-08T11:16:36.587Z,0.00
2024-01-08T11:17:40.043Z,0.00
2024-01-08T11:18:43.459Z,0.50
2024-01-08T11:19:47.075Z,0.25
2024-01-08T11:20:50.557Z,0.00
2024-01-08T11:21:53.926Z,0.00
2024-01-08T11:22:57.586Z,0.25
2024-01-08T11:24:00.898Z,0.50
2024-01-08T11:25:04.187Z,0.50
2024-01-08T11:26:07.631Z,0.50
2024-01-08T11:27:10.755Z,0.00
2024-01-08T11:28:13.957Z,0.00
2024-01-08T11:29:17.272Z,0.00
2024-01-08T11:30:20.545Z,0.00
2024-01-08T11:31:23.790Z,0.00
2024-01-08T11:32:27.241Z,0.00
2024-01-08T11:33:30.447Z,0.00
2024-01-08T11:34:33.929Z,0.00
2024-01-08T11:35:37.276Z,0.00
2024-01-08T11:36:40.933Z,0.00
2024-01-08T11:37:44.319Z,0.00
2024-01-08T11:38:47.739Z,0.00
2024-01-08T11:39:51.192Z,0.00
2024-01-08T11:40:54.472Z,0.00
2024-01-08T11:41:57.881Z,0.00
2024-01-08T11:43:01.049Z,0.00
2024-01-08T11:44:04.159Z,0.00
2024-01-08T11:45:07.317Z,0.00
2024-01-08T11:46:10.481Z,0.25
2024-01-08T11:47:14.106Z,0.00
2024-01-08T11:48:17.910Z,0.00
2024-01-08T11:49:21.184Z,0.00
2024-01-08T11:50:24.530Z,0.00
2024-01-08T11:51:27.839Z,0.00
2024-01-08T11:52:31.360Z,0.50
2024-01-08T11:53:34.527Z,0.50
2024-01-08T11:54:37.794Z,0.00
2024-01-08T11:55:41.180Z,0.60
2024-01-08T11:56:44.487Z,0.00
2024-01-08T11:57:48.057Z,0.00
2024-01-08T11:58:51.938Z,0.50
2024-01-08T11:59:55.391Z,0.50
2024-01-08T12:00:58.795Z,0.00
2024-01-08T12:02:02.352Z,0.00
2024-01-08T12:03:05.954Z,0.00
2024-01-08T12:04:09.395Z,0.00
2024-01-08T12:05:12.908Z,0.00
2024-01-08T12:06:16.272Z,0.00
2024-01-08T12:07:19.667Z,0.50
2024-01-08T12:08:23.260Z,0.25
2024-01-08T12:09:26.519Z,0.00
2024-01-08T12:10:29.814Z,0.00
2024-01-08T12:11:33.023Z,0.50
2024-01-08T12:12:36.280Z,1.00
2024-01-08T12:13:39.571Z,0.00
2024-01-08T12:14:42.754Z,0.00
2024-01-08T12:15:46.131Z,0.00
2024-01-08T12:16:55.433Z,0.00
2024-01-08T12:17:54.288Z,0.00
2024-01-08T12:18:57.658Z,0.00
2024-01-08T12:20:00.989Z,0.50
2024-01-08T12:21:04.289Z,0.50
2024-01-08T12:22:07.476Z,0.00
2024-01-08T12:23:11.571Z,0.00
2024-01-08T12:24:15.900Z,0.00
2024-01-08T12:25:18.994Z,0.00
2024-01-08T12:26:22.329Z,0.00
2024-01-08T12:27:25.529Z,0.00
2024-01-08T12:28:28.813Z,0.00
2024-01-08T12:29:32.052Z,0.00
2024-01-08T12:30:35.318Z,0.00
2024-01-08T12:31:38.934Z,0.00
2024-01-08T12:32:42.323Z,0.00
2024-01-08T12:33:45.754Z,0.00
2024-01-08T12:34:49.189Z,0.00
2024-01-08T12:35:52.481Z,0.00
2024-01-08T12:36:55.600Z,0.00
2024-01-08T12:37:59.008Z,0.00
2024-01-08T12:39:02.268Z,0.00
2024-01-08T12:40:05.597Z,0.00
2024-01-08T12:41:08.865Z,0.00
2024-01-08T12:42:12.135Z,0.00
2024-01-08T12:43:15.209Z,0.00
2024-01-08T12:44:18.523Z,0.00
2024-01-08T12:45:21.820Z,0.00
2024-01-08T12:46:25.395Z,0.00
2024-01-08T12:47:28.651Z,0.00
2024-01-08T12:48:32.209Z,0.00
2024-01-08T12:49:35.565Z,0.00
2024-01-08T12:50:39.630Z,0.00
2024-01-08T12:51:42.916Z,0.50
2024-01-08T12:52:46.109Z,0.00
2024-01-08T12:53:49.383Z,0.00
2024-01-08T12:54:52.568Z,0.00
2024-01-08T12:55:55.789Z,0.00
2024-01-08T12:56:58.897Z,0.00
2024-01-08T12:58:02.058Z,0.00
2024-01-08T12:59:05.242Z,0.00
2024-01-08T13:00:08.411Z,0.00
2024-01-08T13:01:11.835Z,0.00
2024-01-08T13:02:15.058Z,0.00
2024-01-08T13:03:18.133Z,0.00
2024-01-08T13:04:21.208Z,0.00
2024-01-08T13:05:24.613Z,0.00
2024-01-08T13:06:28.223Z,0.00
2024-01-08T13:07:31.563Z,0.00
2024-01-08T13:08:34.761Z,0.00
2024-01-08T13:09:37.924Z,0.00
2024-01-08T13:10:41.010Z,0.00
2024-01-08T13:11:44.353Z,0.00
2024-01-08T13:12:47.440Z,0.00
2024-01-08T13:13:50.371Z,0.00
2024-01-08T13:14:53.528Z,0.00
2024-01-08T13:15:56.703Z,0.00
2024-01-08T13:16:59.907Z,0.00
2024-01-08T13:18:03.108Z,0.00
2024-01-08T13:19:06.347Z,0.00
2024-01-08T13:20:18.986Z,0.00
2024-01-08T13:21:13.942Z,0.00
2024-01-08T13:22:17.247Z,0.00
2024-01-08T13:23:20.513Z,0.00
2024-01-08T13:24:23.700Z,0.00
2024-01-08T13:25:26.884Z,0.00
2024-01-08T13:26:30.197Z,0.00
2024-01-08T13:27:33.480Z,0.00
2024-01-08T13:28:36.628Z,0.00
2024-01-08T13:29:40.017Z,0.00
2024-01-08T13:30:43.035Z,0.00
2024-01-08T13:31:46.174Z,0.00
2024-01-08T13:32:49.787Z,0.00
2024-01-08T13:33:53.338Z,0.00
2024-01-08T13:34:56.511Z,0.00
2024-01-08T13:35:59.641Z,0.00
2024-01-08T13:37:04.047Z,0.00
2024-01-08T13:38:07.453Z,0.50
2024-01-08T13:39:13.606Z,0.00
2024-01-08T13:40:16.869Z,0.00
2024-01-08T13:41:20.076Z,0.00
2024-01-08T13:42:23.336Z,0.00
2024-01-08T13:43:26.919Z,0.00
2024-01-08T13:44:30.288Z,0.00
2024-01-08T13:45:33.604Z,0.00
2024-01-08T13:46:37.116Z,0.00
2024-01-08T13:47:40.895Z,0.00
2024-01-08T13:48:44.619Z,0.00
2024-01-08T13:49:47.782Z,0.00
2024-01-08T13:50:51.040Z,0.00
2024-01-08T13:51:54.431Z,0.00
2024-01-08T13:52:57.909Z,0.00
2024-01-08T13:54:01.191Z,0.00
2024-01-08T13:55:04.372Z,0.25
2024-01-08T13:56:07.802Z,0.00
2024-01-08T13:57:11.141Z,0.00
2024-01-08T13:58:14.649Z,0.00
2024-01-08T13:59:17.982Z,0.00
2024-01-08T14:00:21.407Z,0.00
2024-01-08T14:01:24.496Z,0.00
2024-01-08T14:02:27.844Z,0.00
2024-01-08T14:03:30.998Z,0.00
2024-01-08T14:04:34.489Z,0.00
2024-01-08T14:05:38.048Z,0.00